Air Navigation Services of Czech Republic
Airport: LKTB Updated:  28.10.2020 05:30:24  UTC
 METAR LKTB 28.10. 05:30 ...
METAR LKTB 280530Z 28002KT 0900 R27/P2000N FG OVC003 07/07 Q1015 TEMPO 0700 FG RMK REG QNH 1009=
 TAF LKTB 28.10. 05:00 ...
TAF LKTB 280500Z 2806/2912 VRB02KT 5000 BR SCT002      TEMPO 2806/2808 2500 BR BKN002      PROB30 TEMPO 2806/2808 1400 BR BKN001      BECMG 2808/2810 21008KT 9999 SCT026      BECMG 2821/2900 VRB02KT 2000 BR SCT002      TEMPO 2900/2906 1200 BR OVC002      PROB30 TEMPO 2901/2906 0600 FG VV001      BECMG 2906/2909 22008KT 9999 BKN033      TEMPO 2909/2912 6000 RA BKN014=